Ketchikan International Airport
PAKT : now visible

Airfield :











YOU CAN JOIN US ON...

 
LOGIN :

Register | Disclaimer

   EN    FR    IT 

 









Legend :    VFR   Marginal VFR   IFR   Intensive IFR   Very Intensive IFR
Visi :
Ceiling :
>= 8 km
>= 3000ft
5 to 8 km
1000 to 3000 ft
1500m to 5 km
500 to 1000 ft
800 to 1500m
200 to 500 ft
< 800m
< 200 ft
Symbols :   Thunderstorms  Fog  Heavy snow  Heavy precipitations  Wind > 20 kt






- Airport Elevation : 89 ft
- IATA code : KTN


PAKT - Ketchikan International

CURRENT METAR :
  • 180053Z 17003KT 10SM -RA SCT020 BKN045 OVC055 12/11 A3016 RMK HARBOR WIND 15005KT

EXPIRED METARs :
  • 172353Z 16003KT 8SM -RA SCT022 BKN049 OVC065 12/10 A3016 RMK AO2 SLP215 HARBOR WIND 15005KT P0003 60015 T01220100 10133 20117 53001

TAF PAKT
Valid from the 18 at 00:00 until the 19 at 00:00 UTC


172325Z 1800/1824 14007KT P6SM -SHRA SCT025 BKN035 OVC060
FM180600 14006KT P6SM VCSH OVC040 AMD LTD TO CLD VIS AND WIND
PAZA FIR / North America



MET'MAP, your aeronautical weather chart ! - Copyright ORBIFLY December 2007 - Disclaimer

ORBIFLY MET'MAP TEAM :

Programming & Development : Alexandra Zaïnal
Concept & original design : Baudouin d'Aumeries
Assistance for programming : Marc-Olivier Méhu
Technical & hardware support : Manuel Goepfert

Contact : metmap@orbifly.com




SOURCES & CREDITS :

   NOAA       Earth
Advisory